Time;durP1;ratioP1;P1;durP2;ratioP2;P2;SDS_P1;SDS_P2;PMS_P1;PMS_P2;Temp;Humidity;BMP_temperature;BMP_pressure;BME280_temperature;BME280_humidity;BME280_pressure;Samples;Min_cycle;Max_cycle;Signal;HPM_P1;HPM_P2
2022/07/06 00:02:23;;;;;;;8.57;1.25;;;15.40;99.90;;;;;;5052776;28;20197;-80
2022/07/06 00:04:54;;;;;;;7.78;1.20;;;15.40;99.90;;;;;;5049269;28;20193;-81
2022/07/06 00:07:24;;;;;;;8.20;1.80;;;15.40;99.90;;;;;;5046339;28;20198;-82
2022/07/06 00:09:55;;;;;;;7.30;1.30;;;15.40;99.90;;;;;;5051382;28;20198;-82
2022/07/06 00:12:26;;;;;;;7.05;1.23;;;15.40;99.90;;;;;;5051867;28;20189;-81
2022/07/06 00:14:58;;;;;;;10.23;1.48;;;15.40;99.90;;;;;;5048748;28;20210;-81
2022/07/06 00:17:29;;;;;;;11.55;1.50;;;15.30;99.90;;;;;;5052487;28;20208;-83
2022/07/06 00:20:00;;;;;;;6.07;1.30;;;15.30;99.90;;;;;;5049029;28;20194;-83
2022/07/06 00:22:30;;;;;;;11.52;1.30;;;15.30;99.90;;;;;;5053510;28;20662;-82
2022/07/06 00:25:01;;;;;;;8.55;1.38;;;15.30;99.90;;;;;;5053741;28;20209;-82
2022/07/06 00:27:32;;;;;;;11.68;2.05;;;15.30;99.90;;;;;;5053212;28;20190;-83
2022/07/06 00:30:05;;;;;;;12.88;1.70;;;15.20;99.90;;;;;;5053583;28;20202;-77
2022/07/06 00:32:35;;;;;;;6.70;1.50;;;15.30;99.90;;;;;;5054290;28;20226;-76
2022/07/06 00:35:06;;;;;;;8.05;1.30;;;15.30;99.90;;;;;;5054789;28;20220;-77
2022/07/06 00:37:37;;;;;;;11.25;1.50;;;15.30;99.90;;;;;;5055101;28;20225;-77
2022/07/06 00:40:09;;;;;;;15.30;1.77;;;15.40;99.90;;;;;;5053044;28;20642;-76
2022/07/06 00:42:44;;;;;;;5.75;0.98;;;15.40;99.90;;;;;;5050879;28;20190;-75
2022/07/06 00:45:20;;;;;;;10.27;1.10;;;15.40;99.90;;;;;;5054631;28;20208;-75
2022/07/06 00:47:51;;;;;;;11.75;1.70;;;15.40;99.90;;;;;;5052135;28;20201;-76
2022/07/06 00:50:23;;;;;;;14.35;1.67;;;15.40;99.90;;;;;;5047363;28;20285;-76
2022/07/06 00:52:56;;;;;;;10.95;1.50;;;15.50;99.90;;;;;;5051297;28;20201;-76
2022/07/06 00:55:28;;;;;;;5.78;1.08;;;15.60;99.90;;;;;;5051203;28;20557;-76
2022/07/06 00:57:59;;;;;;;11.02;1.40;;;15.50;99.90;;;;;;5052616;28;20193;-78
2022/07/06 01:00:33;;;;;;;7.50;1.13;;;15.50;99.90;;;;;;5047440;28;20208;-76
2022/07/06 01:03:03;;;;;;;8.93;1.48;;;15.50;99.90;;;;;;5052862;28;20683;-77
2022/07/06 01:05:34;;;;;;;13.43;1.42;;;15.50;99.90;;;;;;5051615;28;20193;-79
2022/07/06 01:08:05;;;;;;;10.30;1.38;;;15.50;99.90;;;;;;5051838;28;20201;-76
2022/07/06 01:10:36;;;;;;;8.30;1.23;;;15.50;99.90;;;;;;5050254;28;20221;-76
2022/07/06 01:13:07;;;;;;;9.60;1.33;;;15.40;99.90;;;;;;5052976;28;20202;-75
2022/07/06 01:15:39;;;;;;;13.07;1.50;;;15.40;99.90;;;;;;5048816;28;20229;-75
2022/07/06 01:18:13;;;;;;;21.10;10.50;;;15.40;99.90;;;;;;5054163;28;20186;-76
2022/07/06 01:20:46;;;;;;;11.93;2.90;;;15.40;99.90;;;;;;5047219;28;20193;-76
2022/07/06 01:23:16;;;;;;;74.82;38.08;;;15.40;99.90;;;;;;5055318;28;20190;-75
2022/07/06 01:25:47;;;;;;;16.42;7.40;;;15.40;99.90;;;;;;5055119;28;20196;-81
2022/07/06 01:28:18;;;;;;;18.58;6.85;;;15.40;99.90;;;;;;5054898;28;20273;-75
2022/07/06 01:30:49;;;;;;;15.52;3.30;;;15.40;99.90;;;;;;5054371;28;20571;-76
2022/07/06 01:33:19;;;;;;;21.77;5.00;;;15.50;99.90;;;;;;5047541;28;20656;-76
2022/07/06 01:35:52;;;;;;;13.57;2.70;;;15.50;99.90;;;;;;5055011;28;20228;-76
2022/07/06 01:38:23;;;;;;;13.93;1.83;;;15.50;99.90;;;;;;5053896;28;20225;-75
2022/07/06 01:40:54;;;;;;;15.23;2.85;;;15.50;99.90;;;;;;5047024;28;20584;-76
2022/07/06 01:43:25;;;;;;;12.45;2.10;;;15.50;99.90;;;;;;5054864;28;20641;-74
2022/07/06 01:45:55;;;;;;;9.23;1.60;;;15.50;99.90;;;;;;5055134;28;20200;-76
2022/07/06 01:48:26;;;;;;;14.02;1.80;;;15.60;99.90;;;;;;5054724;28;20189;-75
2022/07/06 01:50:58;;;;;;;12.38;2.05;;;15.60;99.90;;;;;;5050064;28;20191;-77
2022/07/06 01:53:29;;;;;;;7.03;2.05;;;15.60;99.90;;;;;;5046913;28;20675;-75
2022/07/06 01:56:00;;;;;;;11.65;1.80;;;15.60;99.90;;;;;;5054531;28;20201;-75
2022/07/06 01:58:30;;;;;;;11.63;1.88;;;15.60;99.90;;;;;;5053964;28;20197;-75
2022/07/06 02:01:01;;;;;;;11.20;1.55;;;15.60;99.90;;;;;;5041211;28;20202;-77
2022/07/06 02:03:32;;;;;;;11.32;1.60;;;15.60;99.90;;;;;;5048225;28;20198;-76
2022/07/06 02:06:05;;;;;;;8.13;1.55;;;15.70;99.90;;;;;;5049203;28;20190;-76
2022/07/06 02:08:36;;;;;;;9.80;1.70;;;15.70;99.90;;;;;;5051713;28;20196;-75
2022/07/06 02:11:07;;;;;;;11.25;1.90;;;15.60;99.90;;;;;;5047315;28;20194;-75
2022/07/06 02:13:38;;;;;;;14.48;1.63;;;15.60;99.90;;;;;;5052425;28;20189;-76
2022/07/06 02:16:09;;;;;;;6.90;1.50;;;15.60;99.90;;;;;;5050917;28;20584;-75
2022/07/06 02:18:40;;;;;;;10.52;1.52;;;15.60;99.90;;;;;;5051444;28;20213;-74
2022/07/06 02:21:12;;;;;;;8.75;1.52;;;15.60;99.90;;;;;;5051912;28;20200;-81
2022/07/06 02:23:43;;;;;;;12.35;2.03;;;15.50;99.90;;;;;;5052471;28;20193;-75
2022/07/06 02:26:14;;;;;;;15.98;2.38;;;15.50;99.90;;;;;;5052900;28;20189;-76
2022/07/06 02:28:46;;;;;;;11.68;1.83;;;15.50;99.90;;;;;;5049649;28;20202;-75
2022/07/06 02:31:16;;;;;;;10.23;1.65;;;15.60;99.90;;;;;;5047599;28;20244;-76
2022/07/06 02:33:47;;;;;;;10.23;1.70;;;15.50;99.90;;;;;;5053389;28;20661;-75
2022/07/06 02:36:19;;;;;;;10.55;1.60;;;15.50;99.90;;;;;;5044762;28;20696;-77
2022/07/06 02:38:51;;;;;;;11.70;1.33;;;15.50;99.90;;;;;;5040224;28;20230;-76
2022/07/06 02:41:22;;;;;;;12.60;1.55;;;15.50;99.90;;;;;;5052767;28;20197;-75
2022/07/06 02:43:53;;;;;;;7.45;1.50;;;15.60;99.90;;;;;;5050653;28;20702;-77
2022/07/06 02:46:23;;;;;;;11.77;1.70;;;15.60;99.90;;;;;;5048087;28;20197;-76
2022/07/06 02:48:54;;;;;;;9.63;2.13;;;15.60;99.90;;;;;;5052235;28;20205;-77
2022/07/06 02:51:26;;;;;;;11.88;1.58;;;15.70;99.90;;;;;;5050963;28;20272;-76
2022/07/06 02:53:57;;;;;;;8.63;1.40;;;15.70;99.90;;;;;;5040266;28;20202;-75
2022/07/06 02:56:28;;;;;;;8.52;1.40;;;15.70;99.90;;;;;;5050957;28;20705;-76
2022/07/06 02:58:58;;;;;;;12.73;1.40;;;15.70;99.90;;;;;;5053001;28;20562;-75
2022/07/06 03:01:29;;;;;;;12.52;1.83;;;15.70;99.90;;;;;;5051866;28;20216;-75
2022/07/06 03:04:00;;;;;;;9.63;1.45;;;15.70;99.90;;;;;;5051288;28;20212;-76
2022/07/06 03:06:32;;;;;;;13.45;1.70;;;15.70;99.90;;;;;;5053317;28;20712;-76
2022/07/06 03:09:03;;;;;;;8.38;1.20;;;15.70;99.90;;;;;;5052089;28;20565;-76
2022/07/06 03:11:35;;;;;;;10.65;1.50;;;15.70;99.90;;;;;;5048921;28;20197;-76
2022/07/06 03:14:06;;;;;;;8.02;1.23;;;15.70;99.90;;;;;;5050370;28;20209;-76
2022/07/06 03:16:37;;;;;;;11.65;1.58;;;15.80;99.90;;;;;;5045672;28;20214;-77
2022/07/06 03:19:08;;;;;;;10.27;1.10;;;15.80;99.90;;;;;;5052583;28;20672;-77
2022/07/06 03:21:40;;;;;;;8.35;1.60;;;15.80;99.90;;;;;;5045235;28;20650;-76
2022/07/06 03:24:11;;;;;;;10.98;1.60;;;15.80;99.90;;;;;;5048461;28;20596;-77
2022/07/06 03:26:42;;;;;;;7.95;1.63;;;15.80;99.90;;;;;;5051694;28;20661;-76
2022/07/06 03:29:12;;;;;;;5.05;1.33;;;15.90;99.90;;;;;;5047447;28;20201;-77
2022/07/06 03:31:43;;;;;;;11.48;1.55;;;15.90;99.90;;;;;;5051591;28;20229;-81
2022/07/06 03:34:14;;;;;;;8.98;1.63;;;15.80;99.90;;;;;;5050387;28;20672;-77
2022/07/06 03:36:46;;;;;;;9.82;2.05;;;15.90;99.90;;;;;;5052383;28;20221;-76
2022/07/06 03:39:17;;;;;;;10.60;1.67;;;15.90;99.90;;;;;;5045788;28;20747;-75
2022/07/06 03:41:47;;;;;;;9.77;1.42;;;15.90;99.90;;;;;;5045950;28;20637;-80
2022/07/06 03:44:18;;;;;;;8.77;1.45;;;15.80;99.90;;;;;;5041849;28;20201;-81
2022/07/06 03:46:49;;;;;;;13.15;1.77;;;15.80;99.90;;;;;;5051306;28;20193;-78
2022/07/06 03:49:20;;;;;;;5.28;1.38;;;15.70;99.90;;;;;;5051966;28;20201;-78
2022/07/06 03:51:52;;;;;;;11.10;1.70;;;15.70;99.90;;;;;;5052985;28;20190;-80
2022/07/06 03:54:23;;;;;;;10.45;1.60;;;15.70;99.90;;;;;;5050912;28;20577;-77
2022/07/06 03:56:54;;;;;;;11.73;1.75;;;15.70;99.90;;;;;;5052038;28;20247;-78
2022/07/06 03:59:24;;;;;;;10.10;1.77;;;15.70;99.90;;;;;;5052162;28;20201;-76
2022/07/06 04:01:55;;;;;;;7.85;1.52;;;15.70;99.90;;;;;;5053200;28;20599;-76
2022/07/06 04:04:26;;;;;;;9.10;1.60;;;15.70;99.90;;;;;;5052980;28;20201;-79
2022/07/06 04:06:58;;;;;;;13.07;1.70;;;15.70;99.90;;;;;;5051925;28;20189;-75
2022/07/06 04:09:29;;;;;;;11.38;1.65;;;15.60;99.90;;;;;;5050920;28;20215;-76
2022/07/06 04:12:00;;;;;;;13.40;1.77;;;15.60;99.90;;;;;;5049497;28;20193;-77
2022/07/06 04:14:30;;;;;;;11.95;1.83;;;15.60;99.90;;;;;;5039235;28;20707;-77
2022/07/06 04:17:51;;;;;;;12.27;1.50;;;15.50;99.90;;;;;;5050446;28;20215;-77
2022/07/06 04:19:52;;;;;;;15.93;1.65;;;15.50;99.90;;;;;;5050686;28;20209;-77
2022/07/06 04:22:24;;;;;;;10.23;1.67;;;15.50;99.90;;;;;;5049065;28;20205;-76
2022/07/06 04:24:55;;;;;;;14.52;1.80;;;15.50;99.90;;;;;;5052909;28;20200;-76
2022/07/06 04:27:25;;;;;;;9.35;1.50;;;15.50;99.90;;;;;;5046212;28;20224;-76
2022/07/06 04:29:57;;;;;;;10.88;1.65;;;15.40;99.90;;;;;;5048799;28;20186;-77
2022/07/06 04:32:28;;;;;;;13.40;1.80;;;15.30;99.90;;;;;;5045722;28;20225;-77
2022/07/06 04:34:58;;;;;;;9.15;1.40;;;15.30;99.90;;;;;;5052838;28;20190;-77
2022/07/06 04:37:31;;;;;;;12.98;1.83;;;15.30;99.90;;;;;;5051015;28;20249;-77
2022/07/06 04:40:01;;;;;;;10.13;1.20;;;15.30;99.90;;;;;;5050096;28;20676;-77
2022/07/06 04:42:32;;;;;;;11.25;1.48;;;15.20;99.90;;;;;;5052619;28;20194;-77
2022/07/06 04:45:03;;;;;;;9.75;1.27;;;15.20;99.90;;;;;;5052643;28;20680;-77
2022/07/06 04:47:34;;;;;;;5.43;1.10;;;15.20;99.90;;;;;;5052619;28;20219;-78
2022/07/06 04:50:05;;;;;;;7.97;1.30;;;15.20;99.90;;;;;;5052332;28;20197;-77
2022/07/06 04:52:38;;;;;;;10.98;1.40;;;15.30;99.90;;;;;;5052298;28;20196;-81
2022/07/06 04:55:10;;;;;;;10.23;1.52;;;15.20;99.90;;;;;;5052812;28;20193;-80
2022/07/06 04:57:40;;;;;;;9.60;1.20;;;15.20;99.90;;;;;;5052721;28;20572;-78
2022/07/06 05:00:12;;;;;;;9.70;1.33;;;15.10;99.90;;;;;;5052764;28;20538;-77
2022/07/06 05:02:42;;;;;;;13.10;1.60;;;15.10;99.90;;;;;;5050273;28;20288;-76
2022/07/06 05:05:13;;;;;;;9.02;1.23;;;15.10;99.90;;;;;;5050211;28;20202;-77
2022/07/06 05:07:46;;;;;;;12.73;1.50;;;15.10;99.90;;;;;;5052411;28;20699;-83
2022/07/06 05:10:17;;;;;;;10.68;1.10;;;15.00;99.90;;;;;;5047685;28;20598;-77
2022/07/06 05:12:47;;;;;;;7.38;1.13;;;15.00;99.90;;;;;;5054218;28;20197;-76
2022/07/06 05:15:18;;;;;;;7.60;0.95;;;15.10;99.90;;;;;;5054700;28;20197;-76
2022/07/06 05:17:49;;;;;;;7.03;1.23;;;15.00;99.90;;;;;;5052763;28;20221;-76
2022/07/06 05:20:19;;;;;;;9.23;1.33;;;15.10;99.90;;;;;;5053747;28;20194;-76
2022/07/06 05:22:52;;;;;;;14.63;1.60;;;15.10;99.90;;;;;;5045258;28;20202;-76
2022/07/06 05:25:22;;;;;;;7.43;1.50;;;15.10;99.90;;;;;;5053379;28;20193;-76
2022/07/06 05:27:53;;;;;;;10.05;1.67;;;15.20;99.90;;;;;;5054001;28;20197;-78
2022/07/06 05:30:24;;;;;;;14.77;1.90;;;15.30;99.90;;;;;;5044034;28;20197;-80
2022/07/06 05:32:55;;;;;;;10.50;1.92;;;15.30;99.90;;;;;;5055338;28;20221;-77
2022/07/06 05:35:26;;;;;;;13.75;1.67;;;15.30;99.90;;;;;;5053512;28;20593;-77
2022/07/06 05:37:58;;;;;;;16.50;1.90;;;15.40;99.90;;;;;;5050044;28;20241;-78
2022/07/06 05:40:29;;;;;;;16.70;1.70;;;15.40;99.90;;;;;;5036955;28;20194;-76
2022/07/06 05:43:00;;;;;;;12.85;2.05;;;15.50;99.90;;;;;;5053850;28;20588;-77
2022/07/06 05:45:30;;;;;;;9.00;1.60;;;15.50;99.90;;;;;;5053342;28;20606;-76
2022/07/06 05:50:47;;;;;;;19.15;2.05;;;15.50;99.90;;;;;;5051657;28;20201;-81
2022/07/06 05:53:20;;;;;;;16.92;1.67;;;15.50;99.90;;;;;;5052052;28;20251;-78
2022/07/06 05:55:51;;;;;;;7.65;1.55;;;15.50;99.90;;;;;;5035954;28;20568;-81
2022/07/06 05:58:22;;;;;;;14.85;2.08;;;15.50;99.90;;;;;;5042146;28;20739;-79
2022/07/06 06:00:52;;;;;;;11.65;2.05;;;15.60;99.90;;;;;;5050037;28;20190;-81
2022/07/06 06:03:23;;;;;;;16.50;1.60;;;15.60;99.90;;;;;;5055288;28;20796;-81
2022/07/06 06:05:54;;;;;;;16.42;2.00;;;15.60;99.90;;;;;;5053885;28;20288;-81
2022/07/06 06:08:27;;;;;;;12.57;1.77;;;15.60;99.90;;;;;;5045913;28;20601;-77
2022/07/06 06:10:58;;;;;;;10.45;1.95;;;15.60;99.90;;;;;;5051294;28;20193;-78
2022/07/06 06:13:28;;;;;;;18.23;2.05;;;15.60;99.90;;;;;;5048517;28;20198;-77
2022/07/06 06:15:59;;;;;;;17.58;1.98;;;15.60;99.90;;;;;;5053376;28;20197;-77
2022/07/06 06:18:30;;;;;;;14.10;2.08;;;15.60;99.90;;;;;;5055032;28;20225;-77
2022/07/06 06:21:01;;;;;;;13.15;1.80;;;15.60;99.90;;;;;;5050081;28;20193;-77
2022/07/06 06:23:33;;;;;;;14.68;1.77;;;15.70;99.90;;;;;;5047487;28;20213;-81
2022/07/06 06:26:04;;;;;;;16.33;1.85;;;15.60;99.90;;;;;;5051071;28;20209;-77
2022/07/06 06:28:34;;;;;;;11.73;1.77;;;15.70;99.90;;;;;;5048066;28;20220;-77
2022/07/06 06:31:05;;;;;;;17.85;1.85;;;15.60;99.90;;;;;;5050173;28;21224;-78
2022/07/06 06:33:36;;;;;;;12.63;1.92;;;15.60;99.90;;;;;;5053507;28;20197;-76
2022/07/06 06:36:07;;;;;;;10.75;1.40;;;15.60;99.90;;;;;;5051190;28;20202;-78
2022/07/06 06:38:39;;;;;;;9.90;1.45;;;15.60;99.90;;;;;;5049743;28;20704;-80
2022/07/06 06:41:10;;;;;;;12.18;1.50;;;15.50;99.90;;;;;;5052353;28;20197;-81
2022/07/06 06:43:42;;;;;;;13.88;1.58;;;15.60;99.90;;;;;;5053298;28;20212;-78
2022/07/06 06:46:12;;;;;;;12.75;1.50;;;15.60;99.90;;;;;;5050378;28;20194;-77
2022/07/06 06:48:43;;;;;;;15.35;1.58;;;15.60;99.90;;;;;;5049304;28;20553;-77
2022/07/06 06:51:23;;;;;;;10.43;1.77;;;15.60;99.90;;;;;;5051872;28;20224;-76
2022/07/06 06:53:57;;;;;;;9.25;1.75;;;15.60;99.90;;;;;;5053296;28;20208;-76
2022/07/06 06:56:28;;;;;;;15.55;1.75;;;15.60;99.90;;;;;;5051891;28;20743;-75
2022/07/06 06:58:58;;;;;;;13.45;1.88;;;15.60;99.90;;;;;;5054014;28;20225;-79
2022/07/06 07:01:29;;;;;;;11.70;1.63;;;15.70;99.90;;;;;;5049171;28;20193;-77
2022/07/06 07:04:00;;;;;;;14.13;2.20;;;15.70;99.90;;;;;;5053405;28;20578;-77
2022/07/06 07:06:31;;;;;;;8.02;1.50;;;15.60;99.90;;;;;;5052315;28;20201;-76
2022/07/06 07:09:06;;;;;;;10.95;1.73;;;15.70;99.90;;;;;;5052337;28;20205;-79
2022/07/06 07:11:37;;;;;;;11.60;1.30;;;15.70;99.90;;;;;;5052137;28;20674;-76
2022/07/06 07:14:08;;;;;;;103.85;62.33;;;15.70;99.90;;;;;;5050464;28;20256;-79
2022/07/06 07:16:39;;;;;;;45.92;24.33;;;15.70;99.90;;;;;;5048186;28;20205;-78
2022/07/06 07:19:10;;;;;;;28.88;13.43;;;15.70;99.90;;;;;;5048816;28;20210;-76
2022/07/06 07:21:40;;;;;;;15.57;4.78;;;15.70;99.90;;;;;;5049966;28;20659;-76
2022/07/06 07:24:13;;;;;;;19.33;6.32;;;15.70;99.90;;;;;;5050974;28;20208;-76
2022/07/06 07:26:44;;;;;;;14.43;3.63;;;15.80;99.90;;;;;;5049926;28;20204;-77
2022/07/06 07:29:14;;;;;;;11.30;2.63;;;15.80;99.90;;;;;;5047855;28;20194;-78
2022/07/06 07:31:45;;;;;;;21.73;5.72;;;15.80;99.90;;;;;;5049515;28;20631;-79
2022/07/06 07:34:17;;;;;;;14.15;2.83;;;15.70;99.90;;;;;;5052303;28;20190;-76
2022/07/06 07:36:47;;;;;;;10.77;2.30;;;15.80;99.90;;;;;;5048853;28;20209;-78
2022/07/06 07:39:20;;;;;;;8.90;1.67;;;15.70;99.90;;;;;;5050347;28;20240;-79
2022/07/06 07:41:51;;;;;;;10.40;1.77;;;15.70;99.90;;;;;;5048587;28;20196;-77
2022/07/06 07:44:22;;;;;;;9.60;1.20;;;15.60;99.90;;;;;;5044255;28;20235;-76
2022/07/06 07:46:52;;;;;;;8.15;1.50;;;15.60;99.90;;;;;;5047226;28;20204;-76
2022/07/06 07:49:23;;;;;;;12.27;1.50;;;15.50;99.90;;;;;;5044717;28;20194;-75
2022/07/06 07:51:54;;;;;;;10.88;1.73;;;15.60;99.90;;;;;;5047098;28;20252;-77
2022/07/06 07:54:27;;;;;;;10.95;1.42;;;15.60;99.90;;;;;;5041420;28;20635;-75
2022/07/06 07:56:58;;;;;;;11.50;1.85;;;15.60;99.90;;;;;;5046320;28;20208;-77
2022/07/06 07:59:29;;;;;;;10.13;1.42;;;15.50;99.90;;;;;;5046743;28;20276;-75
2022/07/06 08:02:00;;;;;;;10.23;1.70;;;15.70;99.90;;;;;;5049801;28;20202;-76
2022/07/06 08:04:30;;;;;;;9.55;1.38;;;15.50;99.90;;;;;;5045193;28;20224;-75
2022/07/06 08:07:01;;;;;;;8.43;1.73;;;15.50;99.90;;;;;;5052846;28;20553;-76
2022/07/06 08:09:33;;;;;;;8.30;1.30;;;15.50;99.90;;;;;;5050276;28;20220;-78
2022/07/06 08:12:04;;;;;;;8.23;1.58;;;15.50;99.90;;;;;;5051437;28;20247;-77
2022/07/06 08:14:37;;;;;;;9.90;1.55;;;15.50;99.90;;;;;;5045864;28;20194;-77
2022/07/06 08:17:08;;;;;;;10.27;1.90;;;15.50;99.90;;;;;;5041516;28;20194;-77
2022/07/06 08:19:38;;;;;;;10.07;1.50;;;15.50;99.90;;;;;;5047347;28;21697;-75
2022/07/06 08:22:09;;;;;;;8.57;1.27;;;15.40;99.90;;;;;;5052126;28;20656;-77
2022/07/06 08:24:42;;;;;;;8.88;1.73;;;15.50;99.90;;;;;;5046336;28;20251;-75
2022/07/06 08:27:12;;;;;;;11.25;1.42;;;15.50;99.90;;;;;;5049045;28;20189;-78
2022/07/06 08:29:43;;;;;;;10.50;1.60;;;15.50;99.90;;;;;;5050499;28;20194;-77
2022/07/06 08:32:14;;;;;;;7.88;1.50;;;15.50;99.90;;;;;;5047878;28;20228;-78
2022/07/06 08:34:44;;;;;;;8.77;1.25;;;15.50;99.90;;;;;;5040539;28;20786;-81
2022/07/06 08:37:15;;;;;;;11.90;1.58;;;15.50;99.90;;;;;;5042894;28;20244;-80
2022/07/06 08:39:47;;;;;;;7.72;1.15;;;15.60;99.90;;;;;;5045907;28;20276;-77
2022/07/06 08:42:20;;;;;;;5.13;1.10;;;15.60;99.90;;;;;;5039284;28;20198;-75
2022/07/06 08:44:53;;;;;;;5.57;1.15;;;15.60;99.90;;;;;;5050302;28;20657;-76
2022/07/06 08:47:24;;;;;;;8.93;1.45;;;15.70;99.90;;;;;;5051310;28;20198;-75
2022/07/06 08:49:55;;;;;;;7.07;1.23;;;15.70;99.90;;;;;;5056398;28;20192;-77
2022/07/06 08:52:27;;;;;;;5.30;1.38;;;15.70;99.90;;;;;;5042556;28;20210;-76
2022/07/06 08:55:00;;;;;;;6.32;1.13;;;15.70;99.90;;;;;;5050666;28;20228;-75
2022/07/06 08:57:32;;;;;;;13.82;6.25;;;15.70;99.90;;;;;;5051394;28;20201;-76
2022/07/06 09:00:02;;;;;;;16.73;7.45;;;15.70;99.90;;;;;;5045431;28;20201;-77
2022/07/06 09:02:33;;;;;;;36.50;20.65;;;15.60;99.90;;;;;;5039034;28;20530;-77
2022/07/06 09:05:06;;;;;;;14.48;6.15;;;15.60;99.90;;;;;;5045310;28;20194;-75
2022/07/06 09:07:37;;;;;;;31.70;16.80;;;15.60;99.90;;;;;;5041601;28;20205;-76
2022/07/06 09:10:12;;;;;;;8.02;2.00;;;15.60;99.90;;;;;;5041974;28;20197;-75
2022/07/06 09:12:42;;;;;;;8.45;3.70;;;15.60;99.90;;;;;;5056207;28;20211;-76
2022/07/06 09:15:13;;;;;;;6.70;3.28;;;15.60;99.90;;;;;;5054467;28;20218;-77
2022/07/06 09:17:45;;;;;;;8.73;3.05;;;15.50;99.90;;;;;;5055058;28;20209;-75
2022/07/06 09:20:16;;;;;;;10.00;1.02;;;15.50;99.90;;;;;;5051744;28;20205;-76
2022/07/06 09:22:47;;;;;;;6.25;0.90;;;15.50;99.90;;;;;;5054462;28;20201;-75
2022/07/06 09:25:20;;;;;;;7.88;1.00;;;15.50;99.90;;;;;;5049230;28;20202;-75
2022/07/06 09:27:54;;;;;;;7.55;1.13;;;15.50;99.90;;;;;;5036152;28;20288;-77
2022/07/06 09:30:25;;;;;;;7.13;1.63;;;15.50;99.90;;;;;;5038709;28;20190;-76
2022/07/06 09:32:58;;;;;;;8.05;1.58;;;15.50;99.90;;;;;;5050550;28;20278;-77
2022/07/06 09:35:30;;;;;;;4.38;1.30;;;15.50;99.90;;;;;;5054596;28;20201;-76
2022/07/06 09:38:05;;;;;;;4.97;0.93;;;15.40;99.90;;;;;;5045411;28;20265;-76
2022/07/06 09:40:39;;;;;;;4.68;1.08;;;15.40;99.90;;;;;;5050082;28;20196;-76
2022/07/06 09:43:15;;;;;;;7.95;1.27;;;15.40;99.90;;;;;;5052883;28;20201;-75
2022/07/06 09:45:50;;;;;;;4.82;1.40;;;15.40;99.90;;;;;;5054268;28;20212;-79
2022/07/06 09:48:21;;;;;;;7.55;1.30;;;15.50;99.90;;;;;;5053273;28;20280;-76
2022/07/06 09:50:53;;;;;;;7.40;1.20;;;15.50;99.90;;;;;;5051529;28;20202;-77
2022/07/06 09:53:26;;;;;;;4.40;0.90;;;15.50;99.90;;;;;;5053888;28;20202;-77
2022/07/06 09:56:00;;;;;;;7.22;1.40;;;15.50;99.90;;;;;;5049892;28;20284;-77
2022/07/06 09:58:31;;;;;;;3.72;1.10;;;15.50;99.90;;;;;;5049327;28;20275;-75
2022/07/06 10:01:04;;;;;;;7.15;1.10;;;15.50;99.90;;;;;;5051258;28;20193;-77
2022/07/06 10:03:38;;;;;;;5.47;0.93;;;15.50;99.90;;;;;;5049231;28;20197;-76
2022/07/06 10:06:10;;;;;;;5.18;1.00;;;15.40;99.90;;;;;;5053492;28;20197;-76
2022/07/06 10:08:42;;;;;;;7.55;1.25;;;15.40;99.90;;;;;;5051115;28;20203;-77
2022/07/06 10:11:15;;;;;;;5.43;1.13;;;15.40;99.90;;;;;;5052872;28;20205;-77
2022/07/06 10:13:47;;;;;;;4.40;0.90;;;15.40;99.90;;;;;;5047628;28;20654;-76
2022/07/06 10:16:18;;;;;;;4.13;0.98;;;15.40;99.90;;;;;;5052399;28;20204;-77
2022/07/06 10:18:50;;;;;;;8.13;1.08;;;15.40;99.90;;;;;;5049125;28;20244;-76
2022/07/06 10:21:21;;;;;;;5.75;1.50;;;15.40;99.90;;;;;;5053358;28;20208;-76
2022/07/06 10:23:53;;;;;;;3.85;0.88;;;15.30;99.90;;;;;;5053280;28;20201;-76
2022/07/06 10:26:27;;;;;;;6.47;0.85;;;15.30;99.90;;;;;;5050484;28;20187;-76
2022/07/06 10:29:00;;;;;;;4.22;0.80;;;15.30;99.90;;;;;;5053309;28;20200;-76
2022/07/06 10:31:31;;;;;;;5.47;0.70;;;15.30;99.90;;;;;;5048382;28;20708;-77
2022/07/06 10:34:04;;;;;;;4.65;0.70;;;15.30;99.90;;;;;;5050780;28;20197;-76
2022/07/06 10:36:39;;;;;;;3.03;0.70;;;15.30;99.90;;;;;;5047802;28;20197;-76
2022/07/06 10:41:58;;;;;;;3.90;0.90;;;15.30;99.90;;;;;;5053309;28;20221;-80
2022/07/06 10:44:32;;;;;;;3.92;0.80;;;15.30;99.90;;;;;;5052738;28;20197;-77
2022/07/06 10:47:06;;;;;;;6.30;1.10;;;15.30;99.90;;;;;;5049911;28;20215;-76
2022/07/06 10:49:52;;;;;;;8.98;0.70;;;15.30;99.90;;;;;;5047072;28;20197;-76
2022/07/06 10:52:23;;;;;;;2.58;0.93;;;15.30;99.90;;;;;;5050742;28;20200;-76
2022/07/06 10:55:00;;;;;;;4.30;0.80;;;15.40;99.90;;;;;;5052517;28;20189;-75
2022/07/06 10:57:52;;;;;;;5.97;1.20;;;15.40;99.90;;;;;;5051982;28;20197;-75
2022/07/06 11:00:23;;;;;;;4.35;1.05;;;15.40;99.90;;;;;;5048599;28;20805;-75
2022/07/06 11:02:54;;;;;;;3.30;0.88;;;15.30;99.90;;;;;;5052096;28;20687;-78
2022/07/06 11:05:46;;;;;;;4.97;0.88;;;15.30;99.90;;;;;;5050124;28;20194;-79
2022/07/06 11:08:18;;;;;;;3.70;0.75;;;15.30;99.90;;;;;;5051829;28;20205;-75
2022/07/06 11:10:52;;;;;;;2.03;0.50;;;15.30;99.90;;;;;;5051350;28;20558;-77
2022/07/06 11:13:47;;;;;;;3.10;0.60;;;15.30;99.90;;;;;;5051474;28;20193;-77
2022/07/06 11:16:22;;;;;;;1.95;0.68;;;15.30;99.90;;;;;;5051093;28;20202;-76
2022/07/06 11:19:01;;;;;;;3.60;0.60;;;15.30;99.90;;;;;;5047631;28;20227;-77
2022/07/06 11:21:41;;;;;;;5.45;0.90;;;15.10;99.90;;;;;;5052411;28;20201;-76
2022/07/06 11:24:13;;;;;;;3.75;0.70;;;15.30;99.90;;;;;;5051170;28;20193;-76
2022/07/06 11:26:46;;;;;;;4.25;0.70;;;15.20;99.90;;;;;;5047525;28;20186;-76
2022/07/06 11:29:21;;;;;;;2.42;0.82;;;15.10;99.90;;;;;;5050533;28;20657;-75
2022/07/06 11:32:03;;;;;;;2.00;0.60;;;15.20;99.90;;;;;;5046583;28;21265;-80
2022/07/06 11:34:37;;;;;;;1.60;0.55;;;15.30;99.90;;;;;;5047907;28;20608;-76
2022/07/06 11:37:09;;;;;;;3.15;0.70;;;15.30;99.90;;;;;;5050931;28;20203;-75
2022/07/06 11:39:42;;;;;;;0.88;0.50;;;15.20;99.90;;;;;;5050956;28;20221;-75
2022/07/06 11:42:13;;;;;;;2.63;0.60;;;15.20;99.90;;;;;;5051132;28;20197;-76
2022/07/06 11:44:47;;;;;;;2.03;0.50;;;15.20;99.90;;;;;;5049509;28;20205;-78
2022/07/06 11:47:20;;;;;;;1.50;0.60;;;15.20;99.90;;;;;;5048964;28;20679;-76
2022/07/06 11:49:54;;;;;;;5.03;1.00;;;15.20;99.90;;;;;;5049203;28;20649;-77
2022/07/06 11:52:26;;;;;;;1.08;0.50;;;15.20;99.90;;;;;;5047783;28;20561;-76
2022/07/06 11:55:02;;;;;;;0.68;0.50;;;15.20;99.90;;;;;;5050196;28;20190;-77
2022/07/06 11:57:35;;;;;;;0.60;0.60;;;15.00;99.90;;;;;;5047388;28;20205;-76
2022/07/06 12:00:10;;;;;;;1.08;0.70;;;14.90;99.90;;;;;;5050903;28;20217;-76
2022/07/06 12:02:41;;;;;;;0.55;0.52;;;14.90;99.90;;;;;;5045931;28;20197;-77
2022/07/06 12:05:11;;;;;;;0.98;0.60;;;14.80;99.90;;;;;;5046678;28;20201;-77
2022/07/06 12:07:42;;;;;;;5.45;0.80;;;14.80;99.90;;;;;;5051851;28;20201;-76
2022/07/06 12:10:13;;;;;;;1.15;0.57;;;14.80;99.90;;;;;;5048978;28;20197;-76
2022/07/06 12:12:44;;;;;;;2.05;0.80;;;14.80;99.90;;;;;;5052471;28;20647;-78
2022/07/06 12:15:16;;;;;;;2.88;0.80;;;14.70;99.90;;;;;;5047108;28;20296;-77
2022/07/06 12:17:51;;;;;;;1.70;0.70;;;14.70;99.90;;;;;;5048398;28;20202;-75
2022/07/06 12:20:24;;;;;;;0.65;0.65;;;14.70;99.90;;;;;;5051335;28;20216;-76
2022/07/06 12:23:05;;;;;;;0.68;0.68;;;14.60;99.90;;;;;;5055742;28;20244;-76
2022/07/06 12:25:36;;;;;;;1.90;0.70;;;14.60;99.90;;;;;;5055271;28;20201;-75
2022/07/06 12:28:07;;;;;;;2.28;0.57;;;14.60;99.90;;;;;;5056506;28;20197;-75
2022/07/06 12:30:49;;;;;;;0.60;0.60;;;14.60;99.90;;;;;;5054385;28;20212;-75
2022/07/06 12:33:20;;;;;;;0.60;0.60;;;14.60;99.90;;;;;;5051885;28;20263;-75
2022/07/06 12:35:51;;;;;;;0.75;0.73;;;14.60;99.90;;;;;;5054549;28;20660;-76
2022/07/06 12:38:29;;;;;;;0.75;0.70;;;14.50;99.90;;;;;;5050710;28;20253;-77
2022/07/06 12:41:02;;;;;;;0.95;0.80;;;14.50;99.90;;;;;;5046539;28;20201;-74
2022/07/06 12:43:40;;;;;;;1.73;0.90;;;14.50;99.90;;;;;;5051793;28;20567;-77
2022/07/06 12:46:34;;;;;;;1.13;0.85;;;14.50;99.90;;;;;;5054960;28;20201;-75
2022/07/06 12:49:13;;;;;;;1.83;0.98;;;14.50;99.90;;;;;;5048295;28;20208;-75
2022/07/06 12:51:54;;;;;;;1.52;1.00;;;14.40;99.90;;;;;;5050605;28;20198;-76
2022/07/06 12:54:25;;;;;;;1.15;0.90;;;14.50;99.90;;;;;;5054722;28;20653;-79
2022/07/06 12:57:05;;;;;;;2.72;0.90;;;14.40;99.90;;;;;;5055111;28;20198;-79
2022/07/06 12:59:38;;;;;;;1.23;0.90;;;14.50;99.90;;;;;;5050725;28;20283;-76
2022/07/06 13:02:12;;;;;;;1.30;0.88;;;14.40;99.90;;;;;;5052871;28;20756;-76
2022/07/06 13:04:43;;;;;;;0.90;0.90;;;14.50;99.90;;;;;;5051188;28;20217;-77
2022/07/06 13:07:21;;;;;;;1.30;0.85;;;14.40;99.90;;;;;;5054196;28;20197;-77
2022/07/06 13:09:52;;;;;;;1.42;0.93;;;14.50;99.90;;;;;;5043837;28;20196;-76
2022/07/06 13:12:23;;;;;;;2.55;0.90;;;14.50;99.90;;;;;;5051176;28;20198;-77
2022/07/06 13:14:54;;;;;;;1.23;0.93;;;14.50;99.90;;;;;;5050883;28;20201;-76